createdAt,value
2022-11-03T00:04:47.171Z,99.90
2022-11-03T00:09:50.598Z,99.90
2022-11-03T00:14:55.246Z,99.90
2022-11-03T00:19:58.543Z,99.90
2022-11-03T00:25:02.052Z,99.90
2022-11-03T00:30:08.013Z,99.90
2022-11-03T00:35:11.331Z,99.90
2022-11-03T00:40:14.694Z,99.90
2022-11-03T00:45:19.351Z,99.90
2022-11-03T00:50:22.625Z,99.90
2022-11-03T00:55:25.900Z,99.90
2022-11-03T01:00:30.583Z,99.90
2022-11-03T01:05:50.769Z,99.90
2022-11-03T01:11:11.676Z,99.90
2022-11-03T01:16:16.320Z,99.90
2022-11-03T01:21:19.733Z,99.90
2022-11-03T01:26:23.231Z,99.90
2022-11-03T01:31:29.029Z,99.90
2022-11-03T01:36:32.526Z,99.90
2022-11-03T01:41:35.815Z,99.90
2022-11-03T01:46:44.148Z,99.90
2022-11-03T01:51:51.350Z,99.90
2022-11-03T01:56:55.833Z,99.90
2022-11-03T02:02:00.912Z,99.90
2022-11-03T02:07:18.363Z,99.90
2022-11-03T02:12:23.259Z,99.90
2022-11-03T02:17:30.129Z,99.90
2022-11-03T02:22:49.996Z,99.90
2022-11-03T02:27:54.724Z,99.90
2022-11-03T02:33:04.768Z,99.90
2022-11-03T02:38:13.339Z,99.90
2022-11-03T02:43:19.544Z,99.90
2022-11-03T02:48:23.005Z,99.90
2022-11-03T02:53:29.743Z,99.90
2022-11-03T02:58:40.678Z,99.90
2022-11-03T03:03:49.257Z,99.90
2022-11-03T03:08:57.552Z,99.90
2022-11-03T03:14:02.242Z,99.90
2022-11-03T03:19:11.448Z,99.90
2022-11-03T03:24:20.847Z,99.90
2022-11-03T03:29:29.419Z,99.90
2022-11-03T03:34:36.507Z,99.90
2022-11-03T03:39:43.177Z,99.90
2022-11-03T03:44:48.309Z,99.90
2022-11-03T03:49:51.674Z,99.90
2022-11-03T03:54:55.750Z,99.90
2022-11-03T04:00:00.415Z,99.90
2022-11-03T04:05:03.748Z,99.90
2022-11-03T04:10:08.147Z,99.90
2022-11-03T04:15:31.727Z,99.90
2022-11-03T04:20:52.632Z,99.90
2022-11-03T04:25:57.509Z,99.90
2022-11-03T04:31:02.350Z,99.90
2022-11-03T04:36:13.503Z,99.90
2022-11-03T04:41:19.481Z,99.90
2022-11-03T04:46:27.716Z,99.90
2022-11-03T04:51:34.320Z,99.90
2022-11-03T04:56:37.604Z,99.90
2022-11-03T05:01:43.903Z,99.90
2022-11-03T05:06:51.444Z,99.90
2022-11-03T05:11:54.905Z,99.90
2022-11-03T05:17:01.218Z,99.90
2022-11-03T05:22:06.355Z,99.90
2022-11-03T05:27:17.717Z,99.90
2022-11-03T05:32:25.539Z,99.90
2022-11-03T05:37:30.703Z,99.90
2022-11-03T05:42:37.007Z,99.90
2022-11-03T05:47:42.119Z,99.90
2022-11-03T05:52:46.934Z,99.90
2022-11-03T05:57:50.203Z,99.90
2022-11-03T06:02:55.370Z,99.90
2022-11-03T06:08:02.225Z,99.90
2022-11-03T06:13:15.119Z,99.90
2022-11-03T06:18:22.808Z,99.90
2022-11-03T06:23:27.242Z,99.90
2022-11-03T06:28:36.862Z,99.90
2022-11-03T06:33:41.639Z,99.90
2022-11-03T06:38:50.911Z,99.90
2022-11-03T06:43:54.273Z,99.90
2022-11-03T06:49:00.329Z,99.90
2022-11-03T06:54:09.831Z,99.90
2022-11-03T06:59:15.443Z,99.90
2022-11-03T07:04:22.772Z,99.90
2022-11-03T07:09:27.464Z,99.90
2022-11-03T07:14:33.215Z,99.90
2022-11-03T07:19:40.992Z,99.90
2022-11-03T07:24:48.135Z,99.90
2022-11-03T07:29:52.777Z,99.90
2022-11-03T07:35:05.751Z,99.90
2022-11-03T07:40:14.545Z,99.90
2022-11-03T07:45:36.646Z,99.90
2022-11-03T07:50:41.229Z,99.90
2022-11-03T07:55:45.345Z,99.90
2022-11-03T08:00:48.616Z,99.90
2022-11-03T08:06:02.717Z,99.90
2022-11-03T08:11:08.471Z,99.90
2022-11-03T08:16:11.880Z,99.90
2022-11-03T08:21:18.589Z,99.90
2022-11-03T08:26:22.895Z,99.90
2022-11-03T08:31:26.240Z,99.90
2022-11-03T08:36:31.241Z,99.90
2022-11-03T08:41:34.553Z,99.90
2022-11-03T08:46:37.892Z,99.90
2022-11-03T08:51:44.564Z,99.90
2022-11-03T08:56:48.974Z,99.90
2022-11-03T09:01:52.135Z,99.90
2022-11-03T09:06:58.445Z,99.90
2022-11-03T09:12:01.707Z,99.90
2022-11-03T09:17:05.078Z,99.90
2022-11-03T09:22:09.771Z,99.90
2022-11-03T09:27:13.022Z,99.90
2022-11-03T09:32:21.838Z,99.90
2022-11-03T09:37:28.614Z,99.90
2022-11-03T09:42:34.542Z,99.90
2022-11-03T09:47:40.827Z,99.90
2022-11-03T09:52:51.137Z,99.90
2022-11-03T09:57:56.083Z,99.90
2022-11-03T10:02:59.214Z,96.20
2022-11-03T10:08:06.651Z,96.60
2022-11-03T10:13:13.566Z,93.90
2022-11-03T10:18:16.644Z,91.80
2022-11-03T10:23:21.100Z,90.40
2022-11-03T10:28:25.073Z,91.50
2022-11-03T10:33:29.719Z,90.40
2022-11-03T10:38:36.404Z,88.30
2022-11-03T10:43:40.473Z,83.90
2022-11-03T10:48:43.956Z,82.10
2022-11-03T10:53:48.667Z,87.50
2022-11-03T10:58:52.590Z,88.50
2022-11-03T11:03:56.491Z,90.30
2022-11-03T11:09:04.918Z,88.60
2022-11-03T11:14:37.129Z,88.20
2022-11-03T11:20:25.571Z,87.10
2022-11-03T11:26:14.845Z,87.40
2022-11-03T11:31:32.563Z,86.00
2022-11-03T11:36:36.403Z,83.30
2022-11-03T11:42:13.618Z,84.50
2022-11-03T11:47:51.701Z,84.60
2022-11-03T11:53:03.835Z,80.30
2022-11-03T11:58:26.158Z,78.80
2022-11-03T12:03:39.166Z,73.00
2022-11-03T12:08:43.835Z,77.20
2022-11-03T12:13:51.633Z,76.20
2022-11-03T12:18:55.439Z,78.50
2022-11-03T12:23:58.804Z,76.10
2022-11-03T12:29:03.463Z,82.70
2022-11-03T12:34:06.757Z,86.10
2022-11-03T12:39:10.064Z,86.10
2022-11-03T12:44:14.815Z,88.10
2022-11-03T12:49:18.466Z,90.00
2022-11-03T12:54:22.863Z,87.70
2022-11-03T12:59:27.627Z,85.00
2022-11-03T13:04:30.938Z,87.90
2022-11-03T13:09:36.130Z,89.30
2022-11-03T13:14:44.520Z,90.40
2022-11-03T13:19:54.431Z,88.40
2022-11-03T13:24:58.192Z,91.40
2022-11-03T13:30:03.010Z,93.00
2022-11-03T13:35:12.384Z,92.50
2022-11-03T13:45:42.469Z,93.70
2022-11-03T13:50:46.051Z,94.40
2022-11-03T13:55:49.619Z,95.10
2022-11-03T14:00:54.643Z,95.50
2022-11-03T14:05:57.990Z,97.50
2022-11-03T14:11:21.526Z,98.60
2022-11-03T14:16:26.355Z,99.90
2022-11-03T14:21:29.686Z,99.90
2022-11-03T14:26:42.358Z,99.90
2022-11-03T14:31:47.938Z,99.90
2022-11-03T14:36:51.250Z,99.90
2022-11-03T14:42:06.646Z,99.90
2022-11-03T14:47:12.773Z,99.90
2022-11-03T14:52:16.948Z,99.90
2022-11-03T14:57:20.283Z,99.90
2022-11-03T15:02:25.075Z,99.90
2022-11-03T15:07:28.379Z,99.90
2022-11-03T15:12:31.692Z,99.90
2022-11-03T15:17:36.392Z,99.90
2022-11-03T15:28:02.986Z,99.90
2022-11-03T15:33:07.666Z,99.90
2022-11-03T15:38:10.990Z,99.90
2022-11-03T15:43:14.293Z,99.90
2022-11-03T15:48:18.950Z,99.90
2022-11-03T15:53:22.244Z,99.90
2022-11-03T15:58:25.578Z,99.90
2022-11-03T16:03:30.376Z,99.90
2022-11-03T16:08:33.749Z,99.90
2022-11-03T16:13:37.287Z,99.90
2022-11-03T16:18:42.012Z,99.90
2022-11-03T16:23:45.519Z,99.90
2022-11-03T16:28:48.915Z,99.90
2022-11-03T16:33:56.396Z,99.90
2022-11-03T16:38:59.720Z,99.90
2022-11-03T16:44:03.046Z,99.90
2022-11-03T16:49:07.689Z,99.90
2022-11-03T16:54:10.997Z,99.90
2022-11-03T16:59:14.358Z,99.90
2022-11-03T17:04:19.194Z,99.90
2022-11-03T17:09:22.593Z,99.90
2022-11-03T17:14:25.975Z,99.90
2022-11-03T17:19:30.635Z,99.90
2022-11-03T17:24:33.895Z,99.90
2022-11-03T17:29:38.612Z,99.90
2022-11-03T17:34:43.269Z,99.90
2022-11-03T17:39:46.609Z,99.90
2022-11-03T17:44:50.573Z,99.90
2022-11-03T17:49:55.160Z,99.90
2022-11-03T17:54:59.227Z,99.90
2022-11-03T18:00:02.366Z,99.90
2022-11-03T18:05:21.785Z,99.90
2022-11-03T18:10:27.575Z,99.90
2022-11-03T18:15:32.109Z,99.90
2022-11-03T18:20:36.825Z,99.90
2022-11-03T18:25:40.010Z,99.90
2022-11-03T18:30:44.543Z,99.90
2022-11-03T18:35:49.198Z,99.90
2022-11-03T18:40:52.428Z,99.90
2022-11-03T18:45:55.577Z,99.90
2022-11-03T18:51:00.194Z,99.90
2022-11-03T18:56:04.746Z,99.90
2022-11-03T19:01:10.089Z,99.90
2022-11-03T19:06:15.174Z,99.90
2022-11-03T19:11:18.608Z,99.90
2022-11-03T19:16:23.515Z,99.90
2022-11-03T19:21:28.883Z,99.90
2022-11-03T19:26:33.886Z,99.90
2022-11-03T19:31:38.954Z,99.90
2022-11-03T19:36:43.553Z,99.90
2022-11-03T19:42:04.134Z,99.90
2022-11-03T19:47:07.513Z,99.90
2022-11-03T19:52:13.014Z,99.90
2022-11-03T19:57:16.873Z,99.90
2022-11-03T20:02:20.202Z,99.90
2022-11-03T20:07:30.967Z,99.90
2022-11-03T20:12:34.779Z,99.90
2022-11-03T20:17:37.937Z,99.90
2022-11-03T20:22:43.755Z,99.90
2022-11-03T20:27:46.933Z,99.90
2022-11-03T20:32:50.657Z,99.90
2022-11-03T20:37:59.636Z,99.90
2022-11-03T20:43:03.231Z,99.90
2022-11-03T20:48:07.510Z,99.90
2022-11-03T20:53:15.754Z,99.90
2022-11-03T20:58:19.199Z,99.90
2022-11-03T21:03:58.137Z,99.90
2022-11-03T21:08:48.377Z,99.90
2022-11-03T21:13:51.720Z,99.90
2022-11-03T21:19:12.225Z,99.90
2022-11-03T21:24:16.813Z,99.90
2022-11-03T21:29:33.137Z,99.90
2022-11-03T21:34:42.784Z,99.90
2022-11-03T21:39:47.613Z,99.90
2022-11-03T21:44:50.704Z,99.90
2022-11-03T21:49:53.997Z,99.90
2022-11-03T21:54:58.580Z,99.90
2022-11-03T22:00:01.916Z,99.90
2022-11-03T22:05:10.777Z,99.90
2022-11-03T22:10:16.254Z,99.90
2022-11-03T22:15:36.748Z,99.90
2022-11-03T22:20:57.540Z,99.90
2022-11-03T22:26:19.499Z,99.90
2022-11-03T22:31:39.988Z,99.90
2022-11-03T22:36:43.048Z,99.90
2022-11-03T22:42:06.594Z,99.90
2022-11-03T22:47:11.328Z,99.90
2022-11-03T22:52:16.368Z,99.90
2022-11-03T22:57:20.805Z,99.90
2022-11-03T23:02:23.927Z,99.90
2022-11-03T23:07:31.736Z,99.90
2022-11-03T23:12:37.174Z,99.90
2022-11-03T23:17:58.117Z,99.90
2022-11-03T23:23:01.525Z,99.90
2022-11-03T23:28:06.414Z,99.90
2022-11-03T23:33:09.916Z,99.90
2022-11-03T23:38:13.553Z,99.90
2022-11-03T23:43:17.966Z,99.90
2022-11-03T23:48:38.225Z,99.90
2022-11-03T23:53:41.329Z,99.90
2022-11-03T23:58:49.047Z,99.90
